createdAt,value
2022-09-20T00:01:15.030Z,8.00
2022-09-20T00:03:44.761Z,7.90
2022-09-20T00:06:18.680Z,7.80
2022-09-20T00:08:46.568Z,7.90
2022-09-20T00:11:16.184Z,7.80
2022-09-20T00:13:44.782Z,7.80
2022-09-20T00:16:15.497Z,7.80
2022-09-20T00:18:42.577Z,7.80
2022-09-20T00:21:16.951Z,7.80
2022-09-20T00:23:43.821Z,7.80
2022-09-20T00:26:10.582Z,7.80
2022-09-20T00:28:37.453Z,7.60
2022-09-20T00:31:04.931Z,7.60
2022-09-20T00:33:50.306Z,7.60
2022-09-20T00:36:17.075Z,7.60
2022-09-20T00:38:43.964Z,7.50
2022-09-20T00:41:11.131Z,7.60
2022-09-20T00:43:46.012Z,7.50
2022-09-20T00:46:42.461Z,7.60
2022-09-20T00:49:23.307Z,7.50
2022-09-20T00:51:56.458Z,7.50
2022-09-20T00:54:25.577Z,7.40
2022-09-20T00:56:52.609Z,7.40
2022-09-20T00:59:31.177Z,7.30
2022-09-20T01:02:12.799Z,7.30
2022-09-20T01:04:42.302Z,7.30
2022-09-20T01:07:13.289Z,7.30
2022-09-20T01:09:40.084Z,7.30
2022-09-20T01:12:12.704Z,7.20
2022-09-20T01:14:40.950Z,7.20
2022-09-20T01:17:08.455Z,7.20
2022-09-20T01:19:49.503Z,7.20
2022-09-20T01:22:41.894Z,7.10
2022-09-20T01:25:32.684Z,7.10
2022-09-20T01:27:59.494Z,7.10
2022-09-20T01:30:33.398Z,7.00
2022-09-20T01:33:27.986Z,6.90
2022-09-20T01:35:58.609Z,7.00
2022-09-20T01:38:25.413Z,6.90
2022-09-20T01:41:12.290Z,6.90
2022-09-20T01:44:17.165Z,6.80
2022-09-20T01:46:45.870Z,6.80
2022-09-20T01:49:37.416Z,6.80
2022-09-20T01:52:31.514Z,6.80
2022-09-20T01:55:29.146Z,6.70
2022-09-20T01:58:20.775Z,6.70
2022-09-20T02:01:04.750Z,6.70
2022-09-20T02:03:52.441Z,6.60
2022-09-20T02:06:50.150Z,6.60
2022-09-20T02:10:06.714Z,6.60
2022-09-20T02:12:41.966Z,6.50
2022-09-20T02:15:29.748Z,6.50
2022-09-20T02:18:14.308Z,6.40
2022-09-20T02:21:03.684Z,6.50
2022-09-20T02:23:48.275Z,6.40
2022-09-20T02:26:44.189Z,6.40
2022-09-20T02:29:32.998Z,6.40
2022-09-20T02:32:17.805Z,6.40
2022-09-20T02:35:12.358Z,6.30
2022-09-20T02:37:49.839Z,6.30
2022-09-20T02:40:58.683Z,6.40
2022-09-20T02:43:31.655Z,6.40
2022-09-20T02:46:09.988Z,6.30
2022-09-20T02:48:47.629Z,6.30
2022-09-20T02:51:23.325Z,6.20
2022-09-20T02:54:28.261Z,6.20
2022-09-20T02:57:03.780Z,6.10
2022-09-20T03:00:06.129Z,6.10
2022-09-20T03:02:58.823Z,6.10
2022-09-20T03:05:50.138Z,6.10
2022-09-20T03:08:50.514Z,6.20
2022-09-20T03:11:30.433Z,6.20
2022-09-20T03:14:10.244Z,6.30
2022-09-20T03:17:17.477Z,6.40
2022-09-20T03:20:21.154Z,6.50
2022-09-20T03:23:18.817Z,6.40
2022-09-20T03:26:00.964Z,6.40
2022-09-20T03:28:57.133Z,6.30
2022-09-20T03:31:58.891Z,6.30
2022-09-20T03:34:45.112Z,6.00
2022-09-20T03:37:41.736Z,6.00
2022-09-20T03:40:46.375Z,6.10
2022-09-20T03:43:32.113Z,6.10
2022-09-20T03:46:04.128Z,6.00
2022-09-20T03:48:49.367Z,6.10
2022-09-20T03:51:40.401Z,6.10
2022-09-20T03:54:19.097Z,6.20
2022-09-20T03:57:00.640Z,6.40
2022-09-20T03:59:54.092Z,6.50
2022-09-20T04:02:51.540Z,6.60
2022-09-20T04:05:26.973Z,6.80
2022-09-20T04:08:48.534Z,6.80
2022-09-20T04:11:59.570Z,6.80
2022-09-20T04:14:50.257Z,6.90
2022-09-20T04:17:57.513Z,6.90
2022-09-20T04:20:44.165Z,6.90
2022-09-20T04:23:44.882Z,6.80
2022-09-20T04:26:12.677Z,6.90
2022-09-20T04:29:17.306Z,7.00
2022-09-20T04:31:54.370Z,7.00
2022-09-20T04:34:50.400Z,7.10
2022-09-20T04:37:38.340Z,7.00
2022-09-20T04:40:10.891Z,7.00
2022-09-20T04:42:46.706Z,7.00
2022-09-20T04:45:19.217Z,7.00
2022-09-20T04:48:18.925Z,7.00
2022-09-20T04:51:22.962Z,7.10
2022-09-20T04:54:34.862Z,7.20
2022-09-20T04:57:38.074Z,7.20
2022-09-20T05:00:10.929Z,7.20
2022-09-20T05:02:41.978Z,7.10
2022-09-20T05:05:25.767Z,7.20
2022-09-20T05:08:09.825Z,7.20
2022-09-20T05:11:06.153Z,7.20
2022-09-20T05:13:51.286Z,7.30
2022-09-20T05:16:26.113Z,7.20
2022-09-20T05:19:12.149Z,7.30
2022-09-20T05:22:01.447Z,7.20
2022-09-20T05:24:52.757Z,7.30
2022-09-20T05:27:44.633Z,7.30
2022-09-20T05:30:23.875Z,7.40
2022-09-20T05:33:23.632Z,7.40
2022-09-20T05:35:59.235Z,7.40
2022-09-20T05:38:54.747Z,7.50
2022-09-20T05:41:42.729Z,7.50
2022-09-20T05:44:34.126Z,7.60
2022-09-20T05:47:19.256Z,7.60
2022-09-20T05:50:10.651Z,7.80
2022-09-20T05:53:01.766Z,7.80
2022-09-20T05:55:43.446Z,7.90
2022-09-20T05:58:35.110Z,7.90
2022-09-20T06:01:13.214Z,7.90
2022-09-20T06:03:46.280Z,7.90
2022-09-20T06:06:32.734Z,7.90
2022-09-20T06:09:21.038Z,8.00
2022-09-20T06:12:06.389Z,8.10
2022-09-20T06:15:24.163Z,8.10
2022-09-20T06:18:16.699Z,8.20
2022-09-20T06:21:15.211Z,8.30
2022-09-20T06:23:42.169Z,8.20
2022-09-20T06:26:19.776Z,8.30
2022-09-20T06:28:54.195Z,8.20
2022-09-20T06:31:24.399Z,8.40
2022-09-20T06:34:02.095Z,8.50
2022-09-20T06:36:51.933Z,8.60
2022-09-20T06:39:39.878Z,8.60
2022-09-20T06:42:06.787Z,8.70
2022-09-20T06:44:33.442Z,8.70
2022-09-20T06:47:00.561Z,8.70
2022-09-20T06:49:29.011Z,8.90
2022-09-20T06:51:55.806Z,9.00
2022-09-20T06:54:23.169Z,9.10
2022-09-20T06:56:51.153Z,9.10
2022-09-20T06:59:17.806Z,9.20
2022-09-20T07:01:44.731Z,9.30
2022-09-20T07:04:11.461Z,9.50
2022-09-20T07:06:38.150Z,9.70
2022-09-20T07:09:05.792Z,9.90
2022-09-20T07:11:34.908Z,10.10
2022-09-20T07:14:02.076Z,10.20
2022-09-20T07:16:29.433Z,10.30
2022-09-20T07:18:56.740Z,10.40
2022-09-20T07:21:23.706Z,10.50
2022-09-20T07:23:51.177Z,10.50
2022-09-20T07:26:25.730Z,10.60
2022-09-20T07:28:53.022Z,10.70
2022-09-20T07:31:22.728Z,10.80
2022-09-20T07:33:49.561Z,10.80
2022-09-20T07:36:16.737Z,10.50
2022-09-20T07:38:48.498Z,10.40
2022-09-20T07:41:15.307Z,10.30
2022-09-20T07:43:41.920Z,10.30
2022-09-20T07:46:11.006Z,10.70
2022-09-20T07:48:38.109Z,10.90
2022-09-20T07:51:08.899Z,11.20
2022-09-20T07:53:36.719Z,11.30
2022-09-20T07:56:09.805Z,11.50
2022-09-20T07:58:36.922Z,11.70
2022-09-20T08:01:07.010Z,11.60
2022-09-20T08:03:34.798Z,11.60
2022-09-20T08:06:10.727Z,11.70
2022-09-20T08:08:40.513Z,11.80
2022-09-20T08:11:09.877Z,12.00
2022-09-20T08:16:30.969Z,11.90
2022-09-20T08:19:02.636Z,11.60
2022-09-20T08:21:32.761Z,12.10
2022-09-20T08:24:00.374Z,12.40
2022-09-20T08:26:28.810Z,12.50
2022-09-20T08:28:58.224Z,12.80
2022-09-20T08:31:27.519Z,12.80
2022-09-20T08:33:54.642Z,13.10
2022-09-20T08:36:24.244Z,13.30
2022-09-20T08:42:12.351Z,13.60
2022-09-20T08:44:59.449Z,13.80
2022-09-20T08:47:30.931Z,14.00
2022-09-20T08:49:59.157Z,13.90
2022-09-20T08:52:35.860Z,14.00
2022-09-20T08:55:13.290Z,14.10
2022-09-20T08:57:39.925Z,14.40
2022-09-20T09:00:07.404Z,14.20
2022-09-20T09:02:34.331Z,14.20
2022-09-20T09:05:31.934Z,14.40
2022-09-20T09:08:00.687Z,14.30
2022-09-20T09:10:42.676Z,14.50
2022-09-20T09:13:18.247Z,14.70
2022-09-20T09:15:49.113Z,14.80
2022-09-20T09:18:15.746Z,14.80
2022-09-20T09:20:47.210Z,14.70
2022-09-20T09:23:27.012Z,15.00
2022-09-20T09:25:55.147Z,15.30
2022-09-20T09:28:26.655Z,15.60
2022-09-20T09:31:05.080Z,15.90
2022-09-20T09:33:34.188Z,15.80
2022-09-20T09:36:03.910Z,15.70
2022-09-20T09:38:32.638Z,15.70
2022-09-20T09:41:01.650Z,15.60
2022-09-20T09:43:35.501Z,16.00
2022-09-20T09:46:23.185Z,16.20
2022-09-20T09:49:06.460Z,16.00
2022-09-20T09:51:36.426Z,16.00
2022-09-20T09:54:04.891Z,16.00
2022-09-20T09:56:58.472Z,15.90
2022-09-20T09:59:41.604Z,16.00
2022-09-20T10:02:42.639Z,15.90
2022-09-20T10:05:21.202Z,15.60
2022-09-20T10:07:54.239Z,15.40
2022-09-20T10:10:28.512Z,15.80
2022-09-20T10:13:26.950Z,15.80
2022-09-20T10:16:19.386Z,16.00
2022-09-20T10:18:58.960Z,15.80
2022-09-20T10:21:31.539Z,15.20
2022-09-20T10:24:04.503Z,15.30
2022-09-20T10:26:53.109Z,15.60
2022-09-20T10:29:39.114Z,15.00
2022-09-20T10:32:49.861Z,15.00
2022-09-20T10:35:36.412Z,15.10
2022-09-20T10:38:15.979Z,15.00
2022-09-20T10:41:04.105Z,14.90
2022-09-20T10:43:51.712Z,15.50
2022-09-20T10:46:32.006Z,15.90
2022-09-20T10:49:18.384Z,16.30
2022-09-20T10:52:02.620Z,16.40
2022-09-20T10:54:56.553Z,15.90
2022-09-20T10:57:48.618Z,16.00
2022-09-20T11:00:21.341Z,15.70
2022-09-20T11:03:01.658Z,15.90
2022-09-20T11:05:49.450Z,15.20
2022-09-20T11:08:22.622Z,15.70
2022-09-20T11:10:55.289Z,16.10
2022-09-20T11:13:30.361Z,16.40
2022-09-20T11:16:05.777Z,16.00
2022-09-20T11:18:50.440Z,15.40
2022-09-20T11:21:38.654Z,15.50
2022-09-20T11:24:27.885Z,15.50
2022-09-20T11:26:59.123Z,16.00
2022-09-20T11:29:35.849Z,16.00
2022-09-20T11:32:15.882Z,15.60
2022-09-20T11:35:06.694Z,15.30
2022-09-20T11:37:37.598Z,15.30
2022-09-20T11:40:24.453Z,15.30
2022-09-20T11:42:52.783Z,15.50
2022-09-20T11:45:24.000Z,15.70
2022-09-20T11:47:59.924Z,16.00
2022-09-20T11:50:43.050Z,16.20
2022-09-20T11:53:38.723Z,16.40
2022-09-20T11:56:27.630Z,16.40
2022-09-20T11:59:07.254Z,16.60
2022-09-20T12:01:42.747Z,16.10
2022-09-20T12:04:34.503Z,15.60
2022-09-20T12:07:09.758Z,15.30
2022-09-20T12:09:43.170Z,15.30
2022-09-20T12:12:37.477Z,15.40
2022-09-20T12:15:32.245Z,15.20
2022-09-20T12:18:15.388Z,15.50
2022-09-20T12:20:44.984Z,16.30
2022-09-20T12:23:40.288Z,16.60
2022-09-20T12:26:22.453Z,17.10
2022-09-20T12:28:51.565Z,17.30
2022-09-20T12:31:31.783Z,17.30
2022-09-20T12:34:00.210Z,17.40
2022-09-20T12:36:36.268Z,16.80
2022-09-20T12:39:12.089Z,17.00
2022-09-20T12:42:00.500Z,17.10
2022-09-20T12:44:47.290Z,16.90
2022-09-20T12:47:13.867Z,17.30
2022-09-20T12:50:04.880Z,17.40
2022-09-20T12:52:58.711Z,17.10
2022-09-20T12:55:49.519Z,16.60
2022-09-20T12:58:16.280Z,16.20
2022-09-20T13:00:45.101Z,15.80
2022-09-20T13:03:31.951Z,15.60
2022-09-20T13:06:08.833Z,15.50
2022-09-20T13:08:42.758Z,15.60
2022-09-20T13:11:19.797Z,15.30
2022-09-20T13:13:50.535Z,15.40
2022-09-20T13:16:45.134Z,15.70
2022-09-20T13:19:17.262Z,16.10
2022-09-20T13:22:14.770Z,15.70
2022-09-20T13:24:45.023Z,15.70
2022-09-20T13:27:22.553Z,15.90
2022-09-20T13:29:49.536Z,16.20
2022-09-20T13:32:26.348Z,15.70
2022-09-20T13:35:23.440Z,15.90
2022-09-20T13:38:09.043Z,16.20
2022-09-20T13:40:43.135Z,16.70
2022-09-20T13:43:28.412Z,16.40
2022-09-20T13:46:00.780Z,16.40
2022-09-20T13:48:29.224Z,16.40
2022-09-20T13:50:57.341Z,16.00
2022-09-20T13:53:42.367Z,15.60
2022-09-20T13:56:16.718Z,15.50
2022-09-20T13:58:43.530Z,15.70
2022-09-20T14:01:21.836Z,15.80
2022-09-20T14:03:48.886Z,15.50
2022-09-20T14:06:16.054Z,15.50
2022-09-20T14:08:45.906Z,15.40
2022-09-20T14:11:25.263Z,15.60
2022-09-20T14:13:54.953Z,15.80
2022-09-20T14:16:24.561Z,15.50
2022-09-20T14:18:51.745Z,15.60
2022-09-20T14:21:23.665Z,15.80
2022-09-20T14:23:51.579Z,15.70
2022-09-20T14:26:29.650Z,16.00
2022-09-20T14:28:56.510Z,16.10
2022-09-20T14:31:28.781Z,16.00
2022-09-20T14:33:59.434Z,15.70
2022-09-20T14:36:29.060Z,15.80
2022-09-20T14:38:58.846Z,15.50
2022-09-20T14:41:36.229Z,15.30
2022-09-20T14:44:04.321Z,15.10
2022-09-20T14:46:35.418Z,15.10
2022-09-20T14:49:26.408Z,15.00
2022-09-20T14:51:54.840Z,15.20
2022-09-20T14:54:29.866Z,15.40
2022-09-20T14:56:58.427Z,15.70
2022-09-20T14:59:36.664Z,16.00
2022-09-20T15:02:15.273Z,16.20
2022-09-20T15:04:54.251Z,16.00
2022-09-20T15:07:21.161Z,15.60
2022-09-20T15:09:47.880Z,15.20
2022-09-20T15:12:17.535Z,14.80
2022-09-20T15:14:44.701Z,14.80
2022-09-20T15:17:18.597Z,14.80
2022-09-20T15:19:46.597Z,14.90
2022-09-20T15:22:14.025Z,14.90
2022-09-20T15:24:41.478Z,14.60
2022-09-20T15:27:09.393Z,14.80
2022-09-20T15:29:36.105Z,14.70
2022-09-20T15:32:04.406Z,14.50
2022-09-20T15:34:31.470Z,14.60
2022-09-20T15:36:58.087Z,14.70
2022-09-20T15:39:24.808Z,14.70
2022-09-20T15:41:52.594Z,14.90
2022-09-20T15:44:19.857Z,15.00
2022-09-20T15:46:48.138Z,15.20
2022-09-20T15:49:14.856Z,15.30
2022-09-20T15:51:41.464Z,15.20
2022-09-20T15:54:14.923Z,15.00
2022-09-20T15:56:42.026Z,15.10
2022-09-20T15:59:11.043Z,14.70
2022-09-20T16:01:40.026Z,14.70
2022-09-20T16:04:15.288Z,14.50
2022-09-20T16:06:44.020Z,14.50
2022-09-20T16:09:10.987Z,14.30
2022-09-20T16:11:38.778Z,14.40
2022-09-20T16:14:06.362Z,14.30
2022-09-20T16:16:39.699Z,14.30
2022-09-20T16:19:23.835Z,14.30
2022-09-20T16:21:58.695Z,14.40
2022-09-20T16:24:28.146Z,14.40
2022-09-20T16:26:55.021Z,14.40
2022-09-20T16:29:25.763Z,14.40
2022-09-20T16:31:54.239Z,14.20
2022-09-20T16:34:22.438Z,14.20
2022-09-20T16:36:51.071Z,14.10
2022-09-20T16:39:19.340Z,14.10
2022-09-20T16:41:48.111Z,13.90
2022-09-20T16:44:15.539Z,13.90
2022-09-20T16:46:42.190Z,14.00
2022-09-20T16:49:12.360Z,14.10
2022-09-20T16:51:42.869Z,14.20
2022-09-20T16:54:12.250Z,14.20
2022-09-20T16:56:47.276Z,14.20
2022-09-20T16:59:15.771Z,14.10
2022-09-20T17:01:43.532Z,14.00
2022-09-20T17:04:14.139Z,14.10
2022-09-20T17:06:43.314Z,14.10
2022-09-20T17:09:11.018Z,14.10
2022-09-20T17:11:39.880Z,14.20
2022-09-20T17:14:07.078Z,14.20
2022-09-20T17:16:36.203Z,14.20
2022-09-20T17:19:08.709Z,14.10
2022-09-20T17:21:38.555Z,13.90
2022-09-20T17:24:07.088Z,13.80
2022-09-20T17:26:40.100Z,13.90
2022-09-20T17:29:09.875Z,13.90
2022-09-20T17:31:39.104Z,13.90
2022-09-20T17:34:08.436Z,13.80
2022-09-20T17:36:39.092Z,13.80
2022-09-20T17:39:06.712Z,13.60
2022-09-20T17:41:37.278Z,13.60
2022-09-20T17:44:11.829Z,13.60
2022-09-20T17:46:40.818Z,13.60
2022-09-20T17:49:11.504Z,13.60
2022-09-20T17:51:44.752Z,13.60
2022-09-20T17:54:14.824Z,13.50
2022-09-20T17:56:43.435Z,13.50
2022-09-20T17:59:11.771Z,13.50
2022-09-20T18:01:40.173Z,13.40
2022-09-20T18:04:07.848Z,13.10
2022-09-20T18:06:42.046Z,13.10
2022-09-20T18:09:11.354Z,13.10
2022-09-20T18:11:45.250Z,13.10
2022-09-20T18:14:13.233Z,13.00
2022-09-20T18:16:40.350Z,13.00
2022-09-20T18:19:08.221Z,12.90
2022-09-20T18:21:36.427Z,12.90
2022-09-20T18:24:06.564Z,12.90
2022-09-20T18:26:33.662Z,12.70
2022-09-20T18:29:05.128Z,12.70
2022-09-20T18:31:33.257Z,12.50
2022-09-20T18:34:00.796Z,12.60
2022-09-20T18:36:29.231Z,12.60
2022-09-20T18:38:57.465Z,12.60
2022-09-20T18:41:36.097Z,12.50
2022-09-20T18:44:04.798Z,12.50
2022-09-20T18:46:31.581Z,12.50
2022-09-20T18:49:02.060Z,12.40
2022-09-20T18:51:28.988Z,12.20
2022-09-20T18:53:56.632Z,12.00
2022-09-20T18:56:32.184Z,11.90
2022-09-20T18:59:01.575Z,11.80
2022-09-20T19:01:50.815Z,12.00
2022-09-20T19:04:45.919Z,12.00
2022-09-20T19:07:24.355Z,12.10
2022-09-20T19:10:00.213Z,12.00
2022-09-20T19:12:40.075Z,12.00
2022-09-20T19:15:31.125Z,11.90
2022-09-20T19:18:06.884Z,11.80
2022-09-20T19:21:00.700Z,11.80
2022-09-20T19:23:53.498Z,11.80
2022-09-20T19:26:25.984Z,11.90
2022-09-20T19:28:55.224Z,11.80
2022-09-20T19:31:26.321Z,11.90
2022-09-20T19:33:54.948Z,12.00
2022-09-20T19:36:23.524Z,12.00
2022-09-20T19:39:10.077Z,11.90
2022-09-20T19:42:03.008Z,11.90
2022-09-20T19:44:39.269Z,11.90
2022-09-20T19:47:30.318Z,11.90
2022-09-20T19:50:09.376Z,11.90
2022-09-20T19:52:36.340Z,12.00
2022-09-20T19:55:03.433Z,12.00
2022-09-20T19:57:46.757Z,12.00
2022-09-20T20:00:16.302Z,11.90
2022-09-20T20:02:44.635Z,12.00
2022-09-20T20:05:14.321Z,11.90
2022-09-20T20:07:55.333Z,11.80
2022-09-20T20:10:54.498Z,11.80
2022-09-20T20:13:49.446Z,11.80
2022-09-20T20:16:21.774Z,11.70
2022-09-20T20:19:30.095Z,11.60
2022-09-20T20:22:09.909Z,11.60
2022-09-20T20:24:53.392Z,11.60
2022-09-20T20:27:20.844Z,11.60
2022-09-20T20:29:48.019Z,11.50
2022-09-20T20:32:15.466Z,11.40
2022-09-20T20:34:42.339Z,11.30
2022-09-20T20:37:09.450Z,11.40
2022-09-20T20:39:36.163Z,11.40
2022-09-20T20:42:03.864Z,11.50
2022-09-20T20:44:33.672Z,11.50
2022-09-20T20:47:00.861Z,11.50
2022-09-20T20:49:28.080Z,11.60
2022-09-20T20:51:56.133Z,11.50
2022-09-20T20:54:23.389Z,11.50
2022-09-20T20:56:50.237Z,11.40
2022-09-20T20:59:17.483Z,11.20
2022-09-20T21:01:46.973Z,11.30
2022-09-20T21:04:15.668Z,11.20
2022-09-20T21:06:42.619Z,11.10
2022-09-20T21:09:10.613Z,11.10
2022-09-20T21:11:44.229Z,11.10
2022-09-20T21:14:12.747Z,11.00
2022-09-20T21:16:42.997Z,10.90
2022-09-20T21:19:13.525Z,10.80
2022-09-20T21:21:44.475Z,10.70
2022-09-20T21:24:15.223Z,10.80
2022-09-20T21:26:42.032Z,10.70
2022-09-20T21:29:11.594Z,10.70
2022-09-20T21:31:40.837Z,10.60
2022-09-20T21:34:09.218Z,10.50
2022-09-20T21:36:38.517Z,10.40
2022-09-20T21:39:05.946Z,10.40
2022-09-20T21:41:35.578Z,10.30
2022-09-20T21:44:03.639Z,10.20
2022-09-20T21:46:33.344Z,9.90
2022-09-20T21:49:03.440Z,9.70
2022-09-20T21:51:30.954Z,9.20
2022-09-20T21:53:59.417Z,9.10
2022-09-20T21:56:28.192Z,9.00
2022-09-20T21:58:55.558Z,8.90
2022-09-20T22:01:27.665Z,9.00
2022-09-20T22:04:00.825Z,9.10
2022-09-20T22:06:33.793Z,9.10
2022-09-20T22:09:11.998Z,9.20
2022-09-20T22:11:41.957Z,9.20
2022-09-20T22:14:09.684Z,9.20
2022-09-20T22:16:38.682Z,9.20
2022-09-20T22:19:07.701Z,9.30
2022-09-20T22:21:36.959Z,9.30
2022-09-20T22:24:06.062Z,9.20
2022-09-20T22:26:35.979Z,9.20
2022-09-20T22:29:03.541Z,9.10
2022-09-20T22:31:32.237Z,9.20
2022-09-20T22:34:00.944Z,9.10
2022-09-20T22:36:34.192Z,9.10
2022-09-20T22:39:02.015Z,9.00
2022-09-20T22:41:29.420Z,9.00
2022-09-20T22:43:56.992Z,9.00
2022-09-20T22:46:26.307Z,9.00
2022-09-20T22:48:53.413Z,9.00
2022-09-20T22:51:23.446Z,8.90
2022-09-20T22:53:51.022Z,8.90
2022-09-20T22:56:21.034Z,8.90
2022-09-20T22:58:53.185Z,8.80
2022-09-20T23:01:22.934Z,8.70
2022-09-20T23:04:09.586Z,8.60
2022-09-20T23:06:39.961Z,8.70
2022-09-20T23:09:09.434Z,8.60
2022-09-20T23:11:37.524Z,8.50
2022-09-20T23:14:05.915Z,8.50
2022-09-20T23:16:35.541Z,8.60
2022-09-20T23:19:04.159Z,8.50
2022-09-20T23:21:31.321Z,8.40
2022-09-20T23:24:00.625Z,8.40
2022-09-20T23:26:29.815Z,8.50
2022-09-20T23:28:59.140Z,8.40
2022-09-20T23:31:27.246Z,8.40
2022-09-20T23:33:59.552Z,8.30
2022-09-20T23:36:28.657Z,8.20
2022-09-20T23:38:56.840Z,8.30
2022-09-20T23:41:25.308Z,8.20
2022-09-20T23:43:52.500Z,8.30
2022-09-20T23:46:21.350Z,8.10
2022-09-20T23:48:50.131Z,8.10
2022-09-20T23:51:19.852Z,8.00
2022-09-20T23:53:46.807Z,7.90
2022-09-20T23:56:14.373Z,7.90
2022-09-20T23:58:42.473Z,7.90
